createdAt,value
2019-01-10T00:00:53.060Z,101969.82
2019-01-10T00:02:00.387Z,101964.87
2019-01-10T00:03:05.549Z,101963.34
2019-01-10T00:04:10.420Z,101958.31
2019-01-10T00:05:14.924Z,101965.41
2019-01-10T00:06:19.706Z,101965.31
2019-01-10T00:07:24.891Z,101965.41
2019-01-10T00:08:29.799Z,101970.64
2019-01-10T00:09:35.035Z,101972.56
2019-01-10T00:10:40.239Z,101974.76
2019-01-10T00:11:45.139Z,101975.45
2019-01-10T00:12:49.963Z,101979.63
2019-01-10T00:13:55.047Z,101975.50
2019-01-10T00:15:00.925Z,101979.63
2019-01-10T00:16:05.831Z,101975.49
2019-01-10T00:17:10.944Z,101981.27
2019-01-10T00:18:15.770Z,101981.66
2019-01-10T00:19:20.530Z,101989.80
2019-01-10T00:20:24.995Z,101989.70
2019-01-10T00:21:30.240Z,101986.17
2019-01-10T00:22:35.348Z,101992.69
2019-01-10T00:23:40.202Z,101996.23
2019-01-10T00:24:45.306Z,101999.66
2019-01-10T00:25:50.067Z,101994.42
2019-01-10T00:26:54.927Z,101994.17
2019-01-10T00:28:00.081Z,101993.87
2019-01-10T00:29:05.226Z,101998.05
2019-01-10T00:30:13.156Z,101996.13
2019-01-10T00:31:17.906Z,101991.97
2019-01-10T00:32:22.764Z,101989.95
2019-01-10T00:33:27.931Z,101997.32
2019-01-10T00:34:33.794Z,101997.39
2019-01-10T00:35:38.906Z,101999.08
2019-01-10T00:36:44.105Z,102003.39
2019-01-10T00:37:48.597Z,101996.92
2019-01-10T00:38:54.148Z,101999.81
2019-01-10T00:39:58.979Z,102001.09
2019-01-10T00:41:04.395Z,102002.56
2019-01-10T00:42:09.247Z,101997.75
2019-01-10T00:43:14.146Z,101999.03
2019-01-10T00:44:19.813Z,101996.43
2019-01-10T00:45:24.300Z,101998.20
2019-01-10T00:46:29.118Z,102002.92
2019-01-10T00:47:34.267Z,102001.16
2019-01-10T00:48:39.691Z,102006.22
2019-01-10T00:49:44.943Z,102005.77
2019-01-10T00:50:49.429Z,102007.20
2019-01-10T00:51:54.366Z,102008.12
2019-01-10T00:52:59.595Z,102013.57
2019-01-10T00:54:04.802Z,102009.94
2019-01-10T00:55:09.957Z,102008.18
2019-01-10T00:56:14.743Z,102009.92
2019-01-10T00:57:19.826Z,102018.05
2019-01-10T00:58:24.592Z,102014.30
2019-01-10T00:59:30.097Z,102016.31
2019-01-10T01:00:35.283Z,102016.12
2019-01-10T01:01:40.414Z,102011.08
2019-01-10T01:02:45.583Z,102018.67
2019-01-10T01:03:50.429Z,102010.69
2019-01-10T01:04:55.685Z,102008.02
2019-01-10T01:06:00.828Z,102016.69
2019-01-10T01:07:05.815Z,102008.12
2019-01-10T01:08:10.582Z,102017.47
2019-01-10T01:09:15.786Z,102008.26
2019-01-10T01:10:22.657Z,102014.14
2019-01-10T01:11:28.206Z,102012.51
2019-01-10T01:12:33.500Z,102011.33
2019-01-10T01:13:38.313Z,102008.61
2019-01-10T01:14:43.138Z,102003.00
2019-01-10T01:15:48.267Z,102000.71
2019-01-10T01:16:53.353Z,102007.84
2019-01-10T01:17:58.120Z,102006.59
2019-01-10T01:19:03.358Z,102012.56
2019-01-10T01:20:09.438Z,102010.80
2019-01-10T01:21:14.560Z,102016.20
2019-01-10T01:22:19.053Z,102010.74
2019-01-10T01:23:23.537Z,102015.73
2019-01-10T01:24:28.726Z,102021.22
2019-01-10T01:25:33.919Z,102012.27
2019-01-10T01:26:39.167Z,102021.55
2019-01-10T01:27:43.948Z,102017.89
2019-01-10T01:28:49.129Z,102018.32
2019-01-10T01:29:54.609Z,102023.18
2019-01-10T01:30:59.742Z,102020.53
2019-01-10T01:32:04.499Z,102022.13
2019-01-10T01:33:09.276Z,102020.70
2019-01-10T01:34:14.438Z,102023.22
2019-01-10T01:35:21.562Z,102033.30
2019-01-10T01:36:25.432Z,102033.37
2019-01-10T01:37:30.207Z,102043.98
2019-01-10T01:38:34.962Z,102040.16
2019-01-10T01:39:39.735Z,102038.76
2019-01-10T01:40:45.213Z,102041.60
2019-01-10T01:41:50.026Z,102035.56
2019-01-10T01:42:55.146Z,102037.48
2019-01-10T01:44:00.652Z,102041.47
2019-01-10T01:45:05.908Z,102038.86
2019-01-10T01:46:10.655Z,102051.89
2019-01-10T01:47:16.131Z,102047.67
2019-01-10T01:48:21.014Z,102048.75
2019-01-10T01:49:25.888Z,102052.41
2019-01-10T01:50:31.096Z,102051.45
2019-01-10T01:51:36.229Z,102055.02
2019-01-10T01:52:41.050Z,102058.55
2019-01-10T01:53:46.225Z,102057.08
2019-01-10T01:54:51.070Z,102061.62
2019-01-10T01:55:55.855Z,102061.09
2019-01-10T01:57:01.208Z,102064.06
2019-01-10T01:58:06.316Z,102064.84
2019-01-10T01:59:11.466Z,102059.53
2019-01-10T02:00:21.030Z,102065.19
2019-01-10T02:01:26.240Z,102069.97
2019-01-10T02:02:30.759Z,102063.03
2019-01-10T02:03:35.816Z,102066.61
2019-01-10T02:04:40.638Z,102062.95
2019-01-10T02:05:45.452Z,102067.03
2019-01-10T02:06:51.099Z,102068.41
2019-01-10T02:07:55.601Z,102069.89
2019-01-10T02:09:00.375Z,102072.33
2019-01-10T02:10:06.390Z,102068.77
2019-01-10T02:11:11.155Z,102069.39
2019-01-10T02:12:16.283Z,102076.34
2019-01-10T02:13:21.424Z,102075.74
2019-01-10T02:14:26.959Z,102071.80
2019-01-10T02:15:32.482Z,102070.75
2019-01-10T02:16:37.597Z,102069.39
2019-01-10T02:17:48.894Z,102074.36
2019-01-10T02:18:49.621Z,102074.13
2019-01-10T02:19:54.870Z,102073.89
2019-01-10T02:20:59.685Z,102074.67
2019-01-10T02:22:04.448Z,102076.14
2019-01-10T02:23:09.320Z,102074.03
2019-01-10T02:24:14.074Z,102083.95
2019-01-10T02:25:18.847Z,102079.38
2019-01-10T02:26:23.687Z,102082.58
2019-01-10T02:27:28.985Z,102082.31
2019-01-10T02:28:34.249Z,102080.75
2019-01-10T02:29:39.886Z,102081.82
2019-01-10T02:30:44.709Z,102088.03
2019-01-10T02:31:49.479Z,102089.66
2019-01-10T02:32:54.773Z,102080.77
2019-01-10T02:33:59.789Z,102086.85
2019-01-10T02:35:04.705Z,102088.55
2019-01-10T02:36:09.498Z,102081.14
2019-01-10T02:37:14.731Z,102082.02
2019-01-10T02:38:20.034Z,102088.41
2019-01-10T02:39:25.311Z,102089.11
2019-01-10T02:40:30.644Z,102085.95
2019-01-10T02:41:35.815Z,102084.90
2019-01-10T02:42:40.629Z,102092.16
2019-01-10T02:43:45.827Z,102097.14
2019-01-10T02:44:50.632Z,102092.84
2019-01-10T02:45:55.743Z,102093.42
2019-01-10T02:47:00.500Z,102092.40
2019-01-10T02:48:05.460Z,102095.38
2019-01-10T02:49:10.226Z,102095.19
2019-01-10T02:50:20.400Z,102098.24
2019-01-10T02:51:25.170Z,102089.01
2019-01-10T02:52:29.893Z,102099.56
2019-01-10T02:53:34.836Z,102097.41
2019-01-10T02:54:40.132Z,102100.04
2019-01-10T02:55:45.490Z,102096.05
2019-01-10T02:56:50.238Z,102094.80
2019-01-10T02:57:55.112Z,102092.91
2019-01-10T02:58:59.606Z,102096.95
2019-01-10T03:00:05.502Z,102095.53
2019-01-10T03:01:11.135Z,102099.09
2019-01-10T03:02:16.603Z,102104.48
2019-01-10T03:03:21.077Z,102102.02
2019-01-10T03:04:25.828Z,102102.69
2019-01-10T03:05:30.810Z,102101.31
2019-01-10T03:06:36.121Z,102102.62
2019-01-10T03:07:40.612Z,102103.86
2019-01-10T03:08:45.362Z,102105.84
2019-01-10T03:09:50.609Z,102099.77
2019-01-10T03:10:55.410Z,102102.70
2019-01-10T03:12:00.557Z,102096.23
2019-01-10T03:13:05.758Z,102094.59
2019-01-10T03:14:11.611Z,102097.53
2019-01-10T03:15:16.868Z,102097.53
2019-01-10T03:16:22.093Z,102104.08
2019-01-10T03:17:27.319Z,102104.27
2019-01-10T03:18:32.472Z,102102.58
2019-01-10T03:19:37.677Z,102102.02
2019-01-10T03:20:42.780Z,102102.31
2019-01-10T03:21:48.232Z,102104.11
2019-01-10T03:22:53.460Z,102104.78
2019-01-10T03:23:58.979Z,102106.52
2019-01-10T03:25:03.852Z,102094.09
2019-01-10T03:26:08.733Z,102101.73
2019-01-10T03:27:13.537Z,102099.13
2019-01-10T03:28:18.361Z,102110.59
2019-01-10T03:29:23.932Z,102110.16
2019-01-10T03:30:28.777Z,102109.89
2019-01-10T03:31:34.070Z,102104.69
2019-01-10T03:32:40.124Z,102100.30
2019-01-10T03:33:45.862Z,102101.73
2019-01-10T03:34:51.815Z,102105.02
2019-01-10T03:35:57.473Z,102103.25
2019-01-10T03:37:01.982Z,102107.55
2019-01-10T03:38:06.756Z,102104.91
2019-01-10T03:39:11.242Z,102098.45
2019-01-10T03:40:20.700Z,102098.13
2019-01-10T03:41:26.615Z,102105.28
2019-01-10T03:42:31.857Z,102099.97
2019-01-10T03:43:46.500Z,102101.94
2019-01-10T03:44:43.899Z,102107.95
2019-01-10T03:45:48.689Z,102102.96
2019-01-10T03:46:54.222Z,102103.64
2019-01-10T03:47:59.436Z,102105.80
2019-01-10T03:49:04.266Z,102105.08
2019-01-10T03:50:10.338Z,102107.75
2019-01-10T03:51:15.430Z,102103.91
2019-01-10T03:52:20.576Z,102105.19
2019-01-10T03:53:25.718Z,102101.97
2019-01-10T03:54:31.029Z,102107.74
2019-01-10T03:55:36.142Z,102100.43
2019-01-10T03:56:40.658Z,102100.30
2019-01-10T03:57:45.500Z,102099.59
2019-01-10T03:58:50.920Z,102096.77
2019-01-10T03:59:56.088Z,102093.83
2019-01-10T04:01:00.860Z,102094.12
2019-01-10T04:02:05.690Z,102094.22
2019-01-10T04:03:11.329Z,102094.71
2019-01-10T04:04:16.171Z,102092.34
2019-01-10T04:05:21.387Z,102095.88
2019-01-10T04:06:26.769Z,102097.14
2019-01-10T04:07:32.090Z,102092.83
2019-01-10T04:08:37.374Z,102096.88
2019-01-10T04:09:42.139Z,102091.69
2019-01-10T04:10:46.897Z,102098.17
2019-01-10T04:11:52.391Z,102099.80
2019-01-10T04:12:57.266Z,102101.36
2019-01-10T04:14:02.362Z,102103.25
2019-01-10T04:15:07.380Z,102105.67
2019-01-10T04:16:12.444Z,102100.47
2019-01-10T04:17:17.201Z,102096.80
2019-01-10T04:18:22.373Z,102097.69
2019-01-10T04:19:27.150Z,102101.37
2019-01-10T04:20:32.742Z,102102.38
2019-01-10T04:21:37.226Z,102097.00
2019-01-10T04:22:42.459Z,102106.08
2019-01-10T04:23:48.304Z,102104.42
2019-01-10T04:24:53.818Z,102104.92
2019-01-10T04:25:58.991Z,102108.22
2019-01-10T04:27:03.855Z,102106.41
2019-01-10T04:28:09.768Z,102110.29
2019-01-10T04:29:14.827Z,102112.25
2019-01-10T04:30:21.197Z,102107.84
2019-01-10T04:31:26.830Z,102109.19
2019-01-10T04:32:31.975Z,102108.11
2019-01-10T04:33:37.522Z,102109.61
2019-01-10T04:34:42.975Z,102111.37
2019-01-10T04:35:48.563Z,102109.23
2019-01-10T04:36:53.349Z,102112.27
2019-01-10T04:37:58.449Z,102112.33
2019-01-10T04:39:04.030Z,102111.88
2019-01-10T04:40:11.126Z,102112.65
2019-01-10T04:41:16.547Z,102110.89
2019-01-10T04:42:21.927Z,102111.49
2019-01-10T04:43:26.427Z,102116.66
2019-01-10T04:44:32.377Z,102119.59
2019-01-10T04:45:37.832Z,102121.36
2019-01-10T04:46:42.937Z,102118.13
2019-01-10T04:47:47.786Z,102117.92
2019-01-10T04:48:52.929Z,102120.29
2019-01-10T04:49:58.875Z,102122.06
2019-01-10T04:51:03.695Z,102118.83
2019-01-10T04:52:09.354Z,102120.78
2019-01-10T04:53:14.921Z,102122.83
2019-01-10T04:54:20.531Z,102124.68
2019-01-10T04:55:26.063Z,102119.91
2019-01-10T04:56:30.958Z,102124.80
2019-01-10T04:57:35.443Z,102123.52
2019-01-10T04:58:40.869Z,102126.79
2019-01-10T04:59:45.943Z,102126.29
2019-01-10T05:00:51.441Z,102122.47
2019-01-10T05:01:56.295Z,102125.70
2019-01-10T05:03:01.294Z,102121.58
2019-01-10T05:04:06.776Z,102124.23
2019-01-10T05:05:11.926Z,102126.77
2019-01-10T05:06:16.784Z,102125.49
2019-01-10T05:07:21.648Z,102127.05
2019-01-10T05:08:26.754Z,102128.73
2019-01-10T05:09:32.761Z,102130.19
2019-01-10T05:10:37.900Z,102127.84
2019-01-10T05:11:42.424Z,102126.19
2019-01-10T05:12:47.636Z,102127.24
2019-01-10T05:13:53.292Z,102124.41
2019-01-10T05:14:58.865Z,102124.91
2019-01-10T05:16:04.673Z,102125.00
2019-01-10T05:17:09.915Z,102126.29
2019-01-10T05:18:14.405Z,102122.75
2019-01-10T05:19:19.533Z,102122.16
2019-01-10T05:20:24.745Z,102123.04
2019-01-10T05:21:29.997Z,102125.69
2019-01-10T05:22:35.245Z,102117.66
2019-01-10T05:23:40.841Z,102133.15
2019-01-10T05:24:45.645Z,102128.52
2019-01-10T05:25:51.114Z,102133.14
2019-01-10T05:26:56.566Z,102135.20
2019-01-10T05:28:04.247Z,102137.92
2019-01-10T05:29:09.842Z,102131.94
2019-01-10T05:30:20.521Z,102128.52
2019-01-10T05:31:25.701Z,102124.80
2019-01-10T05:32:30.754Z,102130.27
2019-01-10T05:33:35.629Z,102135.59
2019-01-10T05:34:40.838Z,102132.16
2019-01-10T05:35:45.989Z,102132.34
2019-01-10T05:36:51.975Z,102131.56
2019-01-10T05:37:57.315Z,102131.56
2019-01-10T05:39:01.823Z,102129.34
2019-01-10T05:40:07.740Z,102125.98
2019-01-10T05:41:13.353Z,102127.84
2019-01-10T05:42:18.578Z,102135.48
2019-01-10T05:43:23.818Z,102140.67
2019-01-10T05:44:29.736Z,102138.69
2019-01-10T05:45:34.953Z,102131.66
2019-01-10T05:46:48.482Z,102137.03
2019-01-10T05:47:48.203Z,102137.35
2019-01-10T05:48:54.272Z,102135.20
2019-01-10T05:49:59.090Z,102137.36
2019-01-10T05:51:04.770Z,102141.56
2019-01-10T05:52:10.055Z,102141.36
2019-01-10T05:53:15.362Z,102145.28
2019-01-10T05:54:20.694Z,102136.55
2019-01-10T05:55:26.053Z,102139.69
2019-01-10T05:56:31.382Z,102136.97
2019-01-10T05:57:36.900Z,102139.02
2019-01-10T05:58:41.718Z,102138.03
2019-01-10T05:59:46.929Z,102139.52
2019-01-10T06:00:51.766Z,102139.52
2019-01-10T06:01:57.094Z,102130.51
2019-01-10T06:03:02.744Z,102137.36
2019-01-10T06:04:07.273Z,102134.22
2019-01-10T06:05:12.095Z,102140.79
2019-01-10T06:06:17.403Z,102135.88
2019-01-10T06:07:21.904Z,102136.87
2019-01-10T06:08:26.415Z,102137.65
2019-01-10T06:09:31.572Z,102137.75
2019-01-10T06:10:36.852Z,102133.73
2019-01-10T06:11:42.043Z,102137.86
2019-01-10T06:12:47.264Z,102130.02
2019-01-10T06:13:52.599Z,102138.41
2019-01-10T06:14:57.403Z,102138.70
2019-01-10T06:16:02.949Z,102134.98
2019-01-10T06:17:07.786Z,102139.19
2019-01-10T06:18:13.060Z,102130.79
2019-01-10T06:19:26.510Z,102135.09
2019-01-10T06:20:24.582Z,102142.43
2019-01-10T06:21:29.185Z,102141.95
2019-01-10T06:22:34.119Z,102141.36
2019-01-10T06:23:39.455Z,102145.48
2019-01-10T06:24:44.373Z,102148.03
2019-01-10T06:25:49.258Z,102150.14
2019-01-10T06:26:54.655Z,102156.42
2019-01-10T06:27:59.629Z,102149.19
2019-01-10T06:29:04.857Z,102156.70
2019-01-10T06:30:12.196Z,102150.16
2019-01-10T06:31:17.389Z,102159.74
2019-01-10T06:32:22.723Z,102157.98
2019-01-10T06:33:27.949Z,102158.38
2019-01-10T06:34:33.182Z,102163.45
2019-01-10T06:35:38.432Z,102158.08
2019-01-10T06:36:43.227Z,102160.13
2019-01-10T06:37:48.458Z,102157.38
2019-01-10T06:38:52.973Z,102167.27
2019-01-10T06:39:57.787Z,102165.33
2019-01-10T06:41:02.593Z,102169.52
2019-01-10T06:42:08.184Z,102173.13
2019-01-10T06:43:13.789Z,102171.38
2019-01-10T06:44:21.487Z,102176.77
2019-01-10T06:45:25.741Z,102175.30
2019-01-10T06:46:31.255Z,102179.12
2019-01-10T06:47:36.558Z,102185.77
2019-01-10T06:48:41.780Z,102190.78
2019-01-10T06:49:46.298Z,102184.92
2019-01-10T06:50:51.993Z,102187.03
2019-01-10T06:51:57.264Z,102184.79
2019-01-10T06:53:02.183Z,102183.70
2019-01-10T06:54:07.000Z,102181.48
2019-01-10T06:55:12.449Z,102185.67
2019-01-10T06:56:17.391Z,102187.23
2019-01-10T06:57:22.589Z,102182.53
2019-01-10T06:58:27.409Z,102186.84
2019-01-10T06:59:33.119Z,102185.36
2019-01-10T07:00:37.612Z,102187.02
2019-01-10T07:01:42.888Z,102184.91
2019-01-10T07:02:47.792Z,102185.69
2019-01-10T07:03:53.115Z,102196.63
2019-01-10T07:06:02.191Z,102198.07
2019-01-10T07:07:07.097Z,102197.50
2019-01-10T07:08:12.342Z,102204.23
2019-01-10T07:09:17.532Z,102203.55
2019-01-10T07:10:28.905Z,102199.45
2019-01-10T07:11:33.779Z,102203.75
2019-01-10T07:12:39.944Z,102206.09
2019-01-10T07:13:45.098Z,102202.88
2019-01-10T07:14:53.733Z,102210.23
2019-01-10T07:15:57.012Z,102205.42
2019-01-10T07:17:01.826Z,102201.69
2019-01-10T07:18:06.635Z,102204.42
2019-01-10T07:19:11.861Z,102207.84
2019-01-10T07:20:16.710Z,102206.31
2019-01-10T07:21:21.939Z,102210.11
2019-01-10T07:22:26.757Z,102212.65
2019-01-10T07:23:34.164Z,102214.52
2019-01-10T07:24:38.646Z,102208.63
2019-01-10T07:25:43.562Z,102212.54
2019-01-10T07:26:48.692Z,102215.84
2019-01-10T07:27:56.480Z,102209.81
2019-01-10T07:29:01.074Z,102220.25
2019-01-10T07:30:06.714Z,102213.30
2019-01-10T07:31:30.820Z,102223.06
2019-01-10T07:32:36.448Z,102223.03
2019-01-10T07:33:41.680Z,102227.13
2019-01-10T07:34:47.302Z,102225.95
2019-01-10T07:35:55.309Z,102230.55
2019-01-10T07:37:00.190Z,102233.49
2019-01-10T07:38:05.070Z,102223.89
2019-01-10T07:39:10.763Z,102222.45
2019-01-10T07:40:17.873Z,102226.14
2019-01-10T07:41:22.478Z,102230.47
2019-01-10T07:42:28.483Z,102231.75
2019-01-10T07:43:37.039Z,102228.92
2019-01-10T07:44:41.914Z,102230.48
2019-01-10T07:45:46.780Z,102228.14
2019-01-10T07:46:51.893Z,102225.18
2019-01-10T07:47:57.231Z,102225.29
2019-01-10T07:49:02.054Z,102223.92
2019-01-10T07:50:07.265Z,102227.06
2019-01-10T07:51:12.822Z,102224.33
2019-01-10T07:52:19.694Z,102230.36
2019-01-10T07:53:24.508Z,102234.97
2019-01-10T07:54:29.301Z,102236.73
2019-01-10T07:55:34.173Z,102234.02
2019-01-10T07:56:38.970Z,102234.28
2019-01-10T07:57:43.785Z,102234.58
2019-01-10T07:58:49.097Z,102239.36
2019-01-10T07:59:54.721Z,102240.95
2019-01-10T08:00:59.576Z,102236.38
2019-01-10T08:02:05.057Z,102236.98
2019-01-10T08:03:10.011Z,102236.38
2019-01-10T08:04:14.852Z,102238.36
2019-01-10T08:05:19.734Z,102240.90
2019-01-10T08:06:24.839Z,102241.45
2019-01-10T08:07:29.789Z,102240.19
2019-01-10T08:08:34.931Z,102244.41
2019-01-10T08:09:40.366Z,102250.19
2019-01-10T08:10:46.135Z,102244.39
2019-01-10T08:12:00.021Z,102240.78
2019-01-10T08:12:57.484Z,102237.09
2019-01-10T08:14:02.635Z,102238.26
2019-01-10T08:15:11.939Z,102237.07
2019-01-10T08:16:14.531Z,102231.52
2019-01-10T08:17:19.447Z,102229.27
2019-01-10T08:18:23.934Z,102230.81
2019-01-10T08:19:28.767Z,102234.13
2019-01-10T08:20:34.122Z,102235.91
2019-01-10T08:21:39.012Z,102239.72
2019-01-10T08:22:43.504Z,102243.25
2019-01-10T08:23:48.673Z,102249.52
2019-01-10T08:24:53.483Z,102247.97
2019-01-10T08:25:58.691Z,102250.02
2019-01-10T08:27:04.031Z,102249.63
2019-01-10T08:28:08.861Z,102249.91
2019-01-10T08:29:13.701Z,102251.08
2019-01-10T08:30:20.983Z,102248.95
2019-01-10T08:31:25.802Z,102249.63
2019-01-10T08:32:30.921Z,102253.06
2019-01-10T08:33:35.790Z,102261.36
2019-01-10T08:34:40.269Z,102265.89
2019-01-10T08:35:45.483Z,102261.08
2019-01-10T08:36:50.995Z,102268.61
2019-01-10T08:37:55.945Z,102269.98
2019-01-10T08:39:00.855Z,102269.11
2019-01-10T08:40:05.902Z,102271.38
2019-01-10T08:41:10.813Z,102270.10
2019-01-10T08:42:15.626Z,102271.55
2019-01-10T08:43:20.432Z,102268.91
2019-01-10T08:44:25.663Z,102270.00
2019-01-10T08:45:30.913Z,102269.39
2019-01-10T08:46:36.652Z,102269.89
2019-01-10T08:47:42.115Z,102266.07
2019-01-10T08:48:46.983Z,102261.08
2019-01-10T08:49:52.133Z,102261.66
2019-01-10T08:50:56.945Z,102259.42
2019-01-10T08:52:03.789Z,102262.46
2019-01-10T08:53:08.896Z,102254.02
2019-01-10T08:54:13.767Z,102260.37
2019-01-10T08:55:18.584Z,102262.92
2019-01-10T08:56:23.404Z,102261.47
2019-01-10T08:57:28.224Z,102265.69
2019-01-10T08:58:33.437Z,102271.77
2019-01-10T08:59:38.247Z,102274.31
2019-01-10T09:00:43.390Z,102273.92
2019-01-10T09:01:48.194Z,102276.36
2019-01-10T09:02:52.797Z,102285.56
2019-01-10T09:03:57.941Z,102284.78
2019-01-10T09:05:02.426Z,102283.02
2019-01-10T09:06:08.209Z,102281.73
2019-01-10T09:07:14.058Z,102285.17
2019-01-10T09:08:18.574Z,102289.27
2019-01-10T09:09:23.405Z,102283.11
2019-01-10T09:10:30.645Z,102278.80
2019-01-10T09:11:35.488Z,102279.02
2019-01-10T09:12:40.260Z,102284.38
2019-01-10T09:13:45.239Z,102280.67
2019-01-10T09:14:50.155Z,102280.08
2019-01-10T09:15:55.280Z,102284.50
2019-01-10T09:17:00.083Z,102281.34
2019-01-10T09:18:05.265Z,102288.70
2019-01-10T09:19:10.561Z,102282.02
2019-01-10T09:20:15.386Z,102287.03
2019-01-10T09:21:20.609Z,102292.89
2019-01-10T09:22:25.841Z,102287.70
2019-01-10T09:23:31.583Z,102298.88
2019-01-10T09:24:36.397Z,102292.31
2019-01-10T09:25:40.888Z,102293.01
2019-01-10T09:26:45.664Z,102293.39
2019-01-10T09:27:50.861Z,102294.28
2019-01-10T09:28:55.862Z,102300.22
2019-01-10T09:30:00.806Z,102299.62
2019-01-10T09:31:05.250Z,102300.19
2019-01-10T09:32:10.036Z,102300.50
2019-01-10T09:33:15.344Z,102303.83
2019-01-10T09:34:24.888Z,102304.59
2019-01-10T09:35:26.723Z,102310.34
2019-01-10T09:36:32.168Z,102306.92
2019-01-10T09:37:37.637Z,102307.44
2019-01-10T09:38:42.747Z,102309.20
2019-01-10T09:39:47.246Z,102313.15
2019-01-10T09:40:52.585Z,102309.59
2019-01-10T09:41:57.814Z,102308.45
2019-01-10T09:43:02.949Z,102302.64
2019-01-10T09:44:07.767Z,102305.27
2019-01-10T09:45:13.959Z,102306.56
2019-01-10T09:46:19.092Z,102306.09
2019-01-10T09:47:23.944Z,102305.59
2019-01-10T09:48:28.716Z,102306.00
2019-01-10T09:49:33.284Z,102301.83
2019-01-10T09:50:37.792Z,102303.70
2019-01-10T09:51:43.044Z,102300.19
2019-01-10T09:52:48.469Z,102295.72
2019-01-10T09:53:53.289Z,102294.18
2019-01-10T09:54:58.518Z,102298.95
2019-01-10T09:56:03.647Z,102300.03
2019-01-10T09:57:08.113Z,102297.48
2019-01-10T09:58:12.593Z,102297.05
2019-01-10T09:59:17.365Z,102295.45
2019-01-10T10:00:24.670Z,102292.80
2019-01-10T10:01:29.469Z,102293.31
2019-01-10T10:02:34.612Z,102292.13
2019-01-10T10:03:39.637Z,102292.94
2019-01-10T10:04:44.696Z,102300.77
2019-01-10T10:05:50.039Z,102295.67
2019-01-10T10:06:55.220Z,102306.58
2019-01-10T10:08:00.107Z,102303.78
2019-01-10T10:09:07.135Z,102306.28
2019-01-10T10:10:14.162Z,102305.66
2019-01-10T10:11:18.674Z,102305.23
2019-01-10T10:12:23.829Z,102305.73
2019-01-10T10:13:29.057Z,102306.94
2019-01-10T10:14:33.874Z,102309.36
2019-01-10T10:15:38.653Z,102301.64
2019-01-10T10:16:43.775Z,102304.25
2019-01-10T10:17:48.639Z,102305.37
2019-01-10T10:18:53.469Z,102306.94
2019-01-10T10:19:58.391Z,102307.52
2019-01-10T10:21:03.203Z,102310.56
2019-01-10T10:22:07.711Z,102310.34
2019-01-10T10:23:13.360Z,102308.94
2019-01-10T10:24:18.689Z,102311.68
2019-01-10T10:25:25.970Z,102306.61
2019-01-10T10:26:30.891Z,102311.78
2019-01-10T10:27:36.127Z,102317.02
2019-01-10T10:28:41.043Z,102314.33
2019-01-10T10:29:45.806Z,102318.65
2019-01-10T10:30:51.376Z,102317.38
2019-01-10T10:31:56.219Z,102314.27
2019-01-10T10:33:01.015Z,102313.25
2019-01-10T10:34:05.866Z,102316.78
2019-01-10T10:35:10.675Z,102313.77
2019-01-10T10:36:15.168Z,102310.34
2019-01-10T10:37:20.397Z,102308.70
2019-01-10T10:38:25.644Z,102314.88
2019-01-10T10:39:31.490Z,102315.14
2019-01-10T10:40:35.977Z,102313.38
2019-01-10T10:41:40.903Z,102308.03
2019-01-10T10:42:47.547Z,102305.44
2019-01-10T10:43:52.406Z,102313.10
2019-01-10T10:44:57.514Z,102315.70
2019-01-10T10:46:02.097Z,102313.16
2019-01-10T10:47:06.873Z,102314.28
2019-01-10T10:48:13.613Z,102316.84
2019-01-10T10:49:18.518Z,102316.48
2019-01-10T10:50:28.679Z,102313.61
2019-01-10T10:51:33.472Z,102318.19
2019-01-10T10:52:38.290Z,102317.19
2019-01-10T10:53:42.802Z,102324.66
2019-01-10T10:54:48.415Z,102322.98
2019-01-10T10:55:52.907Z,102318.27
2019-01-10T10:56:58.126Z,102319.55
2019-01-10T10:58:02.609Z,102320.84
2019-01-10T10:59:07.468Z,102318.02
2019-01-10T11:00:16.353Z,102318.88
2019-01-10T11:01:21.149Z,102315.87
2019-01-10T11:02:25.930Z,102314.72
2019-01-10T11:03:31.939Z,102318.16
2019-01-10T11:04:37.402Z,102315.61
2019-01-10T11:05:42.158Z,102312.69
2019-01-10T11:06:46.949Z,102320.64
2019-01-10T11:07:52.036Z,102319.20
2019-01-10T11:08:57.220Z,102315.77
2019-01-10T11:10:02.828Z,102318.06
2019-01-10T11:11:07.578Z,102316.98
2019-01-10T11:12:12.743Z,102315.61
2019-01-10T11:13:18.112Z,102315.41
2019-01-10T11:14:22.900Z,102324.25
2019-01-10T11:15:27.820Z,102317.61
2019-01-10T11:16:32.916Z,102317.21
2019-01-10T11:17:38.032Z,102317.24
2019-01-10T11:18:42.877Z,102318.91
2019-01-10T11:19:47.352Z,102329.09
2019-01-10T11:20:52.234Z,102324.70
2019-01-10T11:21:56.727Z,102323.69
2019-01-10T11:23:10.187Z,102328.14
2019-01-10T11:24:08.096Z,102324.96
2019-01-10T11:25:15.522Z,102332.33
2019-01-10T11:26:20.106Z,102321.55
2019-01-10T11:27:25.790Z,102325.78
2019-01-10T11:28:31.032Z,102319.82
2019-01-10T11:29:36.092Z,102314.88
2019-01-10T11:30:40.603Z,102311.06
2019-01-10T11:31:45.192Z,102315.87
2019-01-10T11:32:49.990Z,102317.20
2019-01-10T11:33:54.828Z,102320.66
2019-01-10T11:34:59.604Z,102309.65
2019-01-10T11:36:04.392Z,102314.11
2019-01-10T11:37:09.162Z,102316.36
2019-01-10T11:38:14.289Z,102315.89
2019-01-10T11:39:19.086Z,102311.35
2019-01-10T11:40:24.204Z,102305.40
2019-01-10T11:41:29.041Z,102304.84
2019-01-10T11:42:36.955Z,102304.94
2019-01-10T11:43:42.072Z,102298.86
2019-01-10T11:44:47.298Z,102298.45
2019-01-10T11:45:52.261Z,102303.32
2019-01-10T11:46:57.034Z,102299.79
2019-01-10T11:48:02.051Z,102298.55
2019-01-10T11:49:06.816Z,102308.64
2019-01-10T11:50:12.275Z,102305.53
2019-01-10T11:51:17.409Z,102301.90
2019-01-10T11:52:22.239Z,102302.48
2019-01-10T11:53:35.261Z,102294.70
2019-01-10T11:54:34.180Z,102290.22
2019-01-10T11:55:38.769Z,102285.93
2019-01-10T11:56:43.319Z,102286.33
2019-01-10T11:57:48.178Z,102284.72
2019-01-10T11:58:52.935Z,102288.69
2019-01-10T11:59:58.103Z,102291.39
2019-01-10T12:01:02.859Z,102289.69
2019-01-10T12:02:08.494Z,102285.23
2019-01-10T12:03:13.269Z,102289.47
2019-01-10T12:04:18.744Z,102290.52
2019-01-10T12:05:23.511Z,102296.83
2019-01-10T12:06:28.300Z,102297.28
2019-01-10T12:07:33.504Z,102292.55
2019-01-10T12:08:38.290Z,102289.36
2019-01-10T12:09:43.718Z,102294.27
2019-01-10T12:10:49.188Z,102288.84
2019-01-10T12:11:54.641Z,102288.94
2019-01-10T12:12:59.456Z,102289.76
2019-01-10T12:14:04.228Z,102283.48
2019-01-10T12:15:09.544Z,102282.86
2019-01-10T12:16:14.732Z,102281.48
2019-01-10T12:17:20.181Z,102285.08
2019-01-10T12:18:25.263Z,102282.13
2019-01-10T12:19:30.390Z,102282.06
2019-01-10T12:20:35.124Z,102286.39
2019-01-10T12:21:39.858Z,102293.05
2019-01-10T12:22:44.968Z,102292.73
2019-01-10T12:23:49.761Z,102286.16
2019-01-10T12:24:54.235Z,102287.88
2019-01-10T12:25:58.984Z,102291.32